sensor_id;sensor_type;location;lat;lon;timestamp;pressure;altitude;pressure_sealevel;temperature;humidity
23321;BME280;33376;51.306;4.752;2022-08-04T00:00:24;101566.69;;;20.90;100.00
23321;BME280;33376;51.306;4.752;2022-08-04T00:10:43;101526.75;;;20.75;100.00
23321;BME280;33376;51.306;4.752;2022-08-04T00:13:11;101522.63;;;20.71;100.00
23321;BME280;33376;51.306;4.752;2022-08-04T00:15:37;101514.06;;;20.66;100.00
23321;BME280;33376;51.306;4.752;2022-08-04T00:18:03;101514.78;;;20.68;100.00
23321;BME280;33376;51.306;4.752;2022-08-04T00:20:32;101514.34;;;20.63;100.00
23321;BME280;33376;51.306;4.752;2022-08-04T00:22:58;101505.50;;;20.61;100.00
23321;BME280;33376;51.306;4.752;2022-08-04T00:25:25;101510.19;;;20.59;100.00
23321;BME280;33376;51.306;4.752;2022-08-04T00:27:50;101497.69;;;20.58;100.00
23321;BME280;33376;51.306;4.752;2022-08-04T00:30:15;101503.97;;;20.58;100.00
23321;BME280;33376;51.306;4.752;2022-08-04T00:32:41;101490.63;;;20.57;100.00
23321;BME280;33376;51.306;4.752;2022-08-04T00:35:07;101479.56;;;20.60;100.00
23321;BME280;33376;51.306;4.752;2022-08-04T00:37:33;101484.63;;;20.53;100.00
23321;BME280;33376;51.306;4.752;2022-08-04T00:40:00;101483.31;;;20.48;100.00
23321;BME280;33376;51.306;4.752;2022-08-04T00:47:33;101471.84;;;20.34;100.00
23321;BME280;33376;51.306;4.752;2022-08-04T00:52:36;101458.06;;;20.28;100.00
23321;BME280;33376;51.306;4.752;2022-08-04T00:57:39;101454.47;;;20.18;100.00
23321;BME280;33376;51.306;4.752;2022-08-04T01:00:14;101448.56;;;20.13;100.00
23321;BME280;33376;51.306;4.752;2022-08-04T01:05:25;101440.63;;;20.11;100.00
23321;BME280;33376;51.306;4.752;2022-08-04T01:08:02;101437.34;;;20.08;100.00
23321;BME280;33376;51.306;4.752;2022-08-04T01:10:37;101432.47;;;20.02;100.00
23321;BME280;33376;51.306;4.752;2022-08-04T01:13:11;101428.19;;;19.99;100.00
23321;BME280;33376;51.306;4.752;2022-08-04T01:15:48;101425.34;;;20.01;100.00
23321;BME280;33376;51.306;4.752;2022-08-04T01:18:21;101419.53;;;19.96;100.00
23321;BME280;33376;51.306;4.752;2022-08-04T01:21:04;101415.13;;;19.95;100.00
23321;BME280;33376;51.306;4.752;2022-08-04T01:29:02;101404.53;;;19.82;100.00
23321;BME280;33376;51.306;4.752;2022-08-04T01:31:52;101405.41;;;19.83;100.00
23321;BME280;33376;51.306;4.752;2022-08-04T01:34:15;101412.75;;;19.81;100.00
23321;BME280;33376;51.306;4.752;2022-08-04T01:36:42;101411.88;;;19.80;100.00
23321;BME280;33376;51.306;4.752;2022-08-04T01:39:08;101404.19;;;19.76;100.00
23321;BME280;33376;51.306;4.752;2022-08-04T01:41:52;101413.41;;;19.73;100.00
23321;BME280;33376;51.306;4.752;2022-08-04T01:44:19;101404.59;;;19.71;100.00
23321;BME280;33376;51.306;4.752;2022-08-04T01:46:45;101411.22;;;19.67;100.00
23321;BME280;33376;51.306;4.752;2022-08-04T01:49:13;101404.72;;;19.70;100.00
23321;BME280;33376;51.306;4.752;2022-08-04T01:51:40;101408.63;;;19.66;100.00
23321;BME280;33376;51.306;4.752;2022-08-04T01:54:06;101404.09;;;19.66;100.00
23321;BME280;33376;51.306;4.752;2022-08-04T01:56:31;101399.00;;;19.63;100.00
23321;BME280;33376;51.306;4.752;2022-08-04T01:58:57;101405.09;;;19.65;100.00
23321;BME280;33376;51.306;4.752;2022-08-04T02:01:23;101406.06;;;19.64;100.00
23321;BME280;33376;51.306;4.752;2022-08-04T02:03:48;101396.81;;;19.57;100.00
23321;BME280;33376;51.306;4.752;2022-08-04T02:06:17;101399.19;;;19.71;100.00
23321;BME280;33376;51.306;4.752;2022-08-04T02:11:18;101410.50;;;19.65;100.00
23321;BME280;33376;51.306;4.752;2022-08-04T02:16:20;101408.31;;;19.59;100.00
23321;BME280;33376;51.306;4.752;2022-08-04T02:18:56;101401.47;;;19.55;100.00
23321;BME280;33376;51.306;4.752;2022-08-04T02:21:24;101396.59;;;19.49;100.00
23321;BME280;33376;51.306;4.752;2022-08-04T02:23:50;101400.75;;;19.42;100.00
23321;BME280;33376;51.306;4.752;2022-08-04T02:26:18;101397.38;;;19.40;100.00
23321;BME280;33376;51.306;4.752;2022-08-04T02:29:03;101395.78;;;19.38;100.00
23321;BME280;33376;51.306;4.752;2022-08-04T02:31:32;101387.84;;;19.36;100.00
23321;BME280;33376;51.306;4.752;2022-08-04T02:36:30;101385.78;;;19.29;100.00
23321;BME280;33376;51.306;4.752;2022-08-04T02:41:21;101381.84;;;19.22;100.00
23321;BME280;33376;51.306;4.752;2022-08-04T02:43:47;101380.41;;;19.18;100.00
23321;BME280;33376;51.306;4.752;2022-08-04T02:46:14;101380.75;;;19.13;100.00
23321;BME280;33376;51.306;4.752;2022-08-04T02:48:40;101381.75;;;19.01;100.00
23321;BME280;33376;51.306;4.752;2022-08-04T02:51:07;101381.63;;;19.03;100.00
23321;BME280;33376;51.306;4.752;2022-08-04T02:53:35;101378.22;;;19.01;100.00
23321;BME280;33376;51.306;4.752;2022-08-04T02:56:01;101378.22;;;19.01;100.00
23321;BME280;33376;51.306;4.752;2022-08-04T02:58:26;101372.84;;;19.01;100.00
23321;BME280;33376;51.306;4.752;2022-08-04T03:00:54;101371.50;;;18.95;100.00
23321;BME280;33376;51.306;4.752;2022-08-04T03:03:22;101367.09;;;18.94;100.00
23321;BME280;33376;51.306;4.752;2022-08-04T03:06:09;101367.34;;;18.91;100.00
23321;BME280;33376;51.306;4.752;2022-08-04T03:22:31;101353.31;;;18.65;100.00
23321;BME280;33376;51.306;4.752;2022-08-04T03:30:19;101354.31;;;18.64;100.00
23321;BME280;33376;51.306;4.752;2022-08-04T03:46:18;101349.44;;;18.58;100.00
23321;BME280;33376;51.306;4.752;2022-08-04T04:10:51;101366.03;;;18.63;100.00
23321;BME280;33376;51.306;4.752;2022-08-04T04:23:14;101357.00;;;18.64;100.00
23321;BME280;33376;51.306;4.752;2022-08-04T04:33:25;101350.63;;;18.76;100.00
23321;BME280;33376;51.306;4.752;2022-08-04T04:38:28;101348.19;;;18.84;100.00
23321;BME280;33376;51.306;4.752;2022-08-04T04:46:42;101338.75;;;19.01;100.00
23321;BME280;33376;51.306;4.752;2022-08-04T04:52:02;101331.13;;;19.28;100.00
23321;BME280;33376;51.306;4.752;2022-08-04T04:54:36;101327.31;;;19.31;100.00
23321;BME280;33376;51.306;4.752;2022-08-04T04:59:33;101330.22;;;19.39;100.00
23321;BME280;33376;51.306;4.752;2022-08-04T05:09:51;101333.13;;;19.58;100.00
23321;BME280;33376;51.306;4.752;2022-08-04T05:14:49;101348.59;;;19.65;100.00
23321;BME280;33376;51.306;4.752;2022-08-04T05:17:16;101341.44;;;19.75;100.00
23321;BME280;33376;51.306;4.752;2022-08-04T05:22:12;101338.72;;;19.86;100.00
23321;BME280;33376;51.306;4.752;2022-08-04T05:24:41;101340.88;;;19.92;100.00
23321;BME280;33376;51.306;4.752;2022-08-04T05:27:16;101345.19;;;20.04;100.00
23321;BME280;33376;51.306;4.752;2022-08-04T05:29:58;101350.91;;;20.11;100.00
23321;BME280;33376;51.306;4.752;2022-08-04T05:32:28;101352.13;;;20.18;100.00
23321;BME280;33376;51.306;4.752;2022-08-04T05:34:57;101355.84;;;20.26;100.00
23321;BME280;33376;51.306;4.752;2022-08-04T05:37:24;101366.38;;;20.29;100.00
23321;BME280;33376;51.306;4.752;2022-08-04T05:39:55;101368.13;;;20.40;100.00
23321;BME280;33376;51.306;4.752;2022-08-04T05:42:21;101364.13;;;20.34;100.00
23321;BME280;33376;51.306;4.752;2022-08-04T05:44:46;101367.00;;;20.43;100.00
23321;BME280;33376;51.306;4.752;2022-08-04T05:47:12;101368.03;;;20.51;100.00
23321;BME280;33376;51.306;4.752;2022-08-04T05:49:38;101367.34;;;20.59;100.00
23321;BME280;33376;51.306;4.752;2022-08-04T05:52:05;101372.09;;;20.66;100.00
23321;BME280;33376;51.306;4.752;2022-08-04T05:54:31;101376.66;;;20.75;100.00
23321;BME280;33376;51.306;4.752;2022-08-04T05:56:57;101383.22;;;20.82;100.00
23321;BME280;33376;51.306;4.752;2022-08-04T05:59:23;101389.19;;;20.86;100.00
23321;BME280;33376;51.306;4.752;2022-08-04T06:01:49;101379.19;;;20.97;100.00
23321;BME280;33376;51.306;4.752;2022-08-04T06:04:15;101383.19;;;21.03;100.00
23321;BME280;33376;51.306;4.752;2022-08-04T06:06:42;101387.03;;;21.19;100.00
23321;BME280;33376;51.306;4.752;2022-08-04T06:09:08;101393.59;;;21.26;100.00
23321;BME280;33376;51.306;4.752;2022-08-04T06:11:36;101400.16;;;21.43;100.00
23321;BME280;33376;51.306;4.752;2022-08-04T06:14:03;101401.59;;;21.56;100.00
23321;BME280;33376;51.306;4.752;2022-08-04T06:16:35;101412.00;;;21.80;100.00
23321;BME280;33376;51.306;4.752;2022-08-04T06:19:08;101403.06;;;21.99;100.00
23321;BME280;33376;51.306;4.752;2022-08-04T06:21:36;101412.28;;;22.06;100.00
23321;BME280;33376;51.306;4.752;2022-08-04T06:24:03;101421.94;;;22.27;100.00
23321;BME280;33376;51.306;4.752;2022-08-04T06:26:29;101428.31;;;22.55;100.00
23321;BME280;33376;51.306;4.752;2022-08-04T06:28:56;101432.44;;;22.95;100.00
23321;BME280;33376;51.306;4.752;2022-08-04T06:31:22;101422.75;;;22.93;100.00
23321;BME280;33376;51.306;4.752;2022-08-04T06:34:10;101449.81;;;23.30;100.00
23321;BME280;33376;51.306;4.752;2022-08-04T06:36:37;101463.75;;;23.35;100.00
23321;BME280;33376;51.306;4.752;2022-08-04T06:39:05;101471.09;;;23.52;100.00
23321;BME280;33376;51.306;4.752;2022-08-04T06:41:31;101474.91;;;23.76;100.00
23321;BME280;33376;51.306;4.752;2022-08-04T06:44:01;101479.91;;;24.16;100.00
23321;BME280;33376;51.306;4.752;2022-08-04T06:46:30;101495.22;;;25.11;100.00
23321;BME280;33376;51.306;4.752;2022-08-04T06:48:56;101525.47;;;25.24;100.00
23321;BME280;33376;51.306;4.752;2022-08-04T06:51:22;101537.81;;;25.78;100.00
23321;BME280;33376;51.306;4.752;2022-08-04T06:53:48;101555.09;;;26.19;100.00
23321;BME280;33376;51.306;4.752;2022-08-04T06:56:15;101559.09;;;26.88;100.00
23321;BME280;33376;51.306;4.752;2022-08-04T06:58:41;101572.16;;;27.09;100.00
23321;BME280;33376;51.306;4.752;2022-08-04T07:01:07;101567.16;;;27.91;100.00
23321;BME280;33376;51.306;4.752;2022-08-04T07:03:33;101565.13;;;28.46;100.00
23321;BME280;33376;51.306;4.752;2022-08-04T07:05:59;101578.78;;;27.06;100.00
23321;BME280;33376;51.306;4.752;2022-08-04T07:08:24;101594.56;;;28.28;100.00
23321;BME280;33376;51.306;4.752;2022-08-04T07:10:50;101599.66;;;27.46;100.00
23321;BME280;33376;51.306;4.752;2022-08-04T07:13:17;101602.94;;;27.34;100.00
23321;BME280;33376;51.306;4.752;2022-08-04T07:15:44;101584.53;;;28.74;100.00
23321;BME280;33376;51.306;4.752;2022-08-04T07:18:10;101576.59;;;28.64;100.00
23321;BME280;33376;51.306;4.752;2022-08-04T07:20:39;101592.16;;;28.03;100.00
23321;BME280;33376;51.306;4.752;2022-08-04T07:23:05;101589.19;;;28.43;100.00
23321;BME280;33376;51.306;4.752;2022-08-04T07:25:30;101588.75;;;28.99;100.00
23321;BME280;33376;51.306;4.752;2022-08-04T07:27:57;101598.94;;;28.07;100.00
23321;BME280;33376;51.306;4.752;2022-08-04T07:30:22;101635.34;;;26.23;100.00
23321;BME280;33376;51.306;4.752;2022-08-04T07:32:49;101654.84;;;25.84;100.00
23321;BME280;33376;51.306;4.752;2022-08-04T07:35:15;101651.69;;;26.39;100.00
23321;BME280;33376;51.306;4.752;2022-08-04T07:37:41;101647.19;;;27.19;100.00
23321;BME280;33376;51.306;4.752;2022-08-04T07:40:06;101647.06;;;26.23;100.00
23321;BME280;33376;51.306;4.752;2022-08-04T07:42:32;101660.50;;;25.91;100.00
23321;BME280;33376;51.306;4.752;2022-08-04T07:44:57;101659.78;;;26.64;100.00
23321;BME280;33376;51.306;4.752;2022-08-04T07:47:23;101661.84;;;26.86;100.00
23321;BME280;33376;51.306;4.752;2022-08-04T07:49:48;101654.31;;;27.53;100.00
23321;BME280;33376;51.306;4.752;2022-08-04T07:52:14;101642.00;;;28.27;100.00
23321;BME280;33376;51.306;4.752;2022-08-04T07:54:40;101647.25;;;27.98;100.00
23321;BME280;33376;51.306;4.752;2022-08-04T07:57:06;101644.16;;;28.85;100.00
23321;BME280;33376;51.306;4.752;2022-08-04T07:59:31;101636.00;;;28.63;100.00
23321;BME280;33376;51.306;4.752;2022-08-04T08:02:00;101643.81;;;28.35;100.00
23321;BME280;33376;51.306;4.752;2022-08-04T08:04:26;101645.81;;;27.56;100.00
23321;BME280;33376;51.306;4.752;2022-08-04T08:06:52;101648.16;;;27.67;100.00
23321;BME280;33376;51.306;4.752;2022-08-04T08:09:18;101658.72;;;28.16;100.00
23321;BME280;33376;51.306;4.752;2022-08-04T08:11:47;101659.41;;;28.18;100.00
23321;BME280;33376;51.306;4.752;2022-08-04T08:14:12;101663.78;;;28.35;100.00
23321;BME280;33376;51.306;4.752;2022-08-04T08:16:37;101679.22;;;28.12;100.00
23321;BME280;33376;51.306;4.752;2022-08-04T08:19:03;101685.50;;;27.50;100.00
23321;BME280;33376;51.306;4.752;2022-08-04T08:21:29;101694.69;;;27.65;100.00
23321;BME280;33376;51.306;4.752;2022-08-04T08:23:54;101694.25;;;28.39;100.00
23321;BME280;33376;51.306;4.752;2022-08-04T08:26:20;101693.53;;;27.27;100.00
23321;BME280;33376;51.306;4.752;2022-08-04T08:28:45;101708.31;;;27.65;100.00
23321;BME280;33376;51.306;4.752;2022-08-04T08:31:11;101716.81;;;26.98;100.00
23321;BME280;33376;51.306;4.752;2022-08-04T08:33:36;101734.38;;;26.62;100.00
23321;BME280;33376;51.306;4.752;2022-08-04T08:36:18;101736.25;;;26.53;100.00
23321;BME280;33376;51.306;4.752;2022-08-04T08:41:29;101755.16;;;26.21;100.00
23321;BME280;33376;51.306;4.752;2022-08-04T08:49:28;101767.28;;;25.83;100.00
23321;BME280;33376;51.306;4.752;2022-08-04T09:12:20;101810.53;;;25.34;100.00
23321;BME280;33376;51.306;4.752;2022-08-04T09:15:10;101805.88;;;24.99;100.00
23321;BME280;33376;51.306;4.752;2022-08-04T09:17:34;101789.22;;;24.67;100.00
23321;BME280;33376;51.306;4.752;2022-08-04T09:20:14;101786.88;;;24.18;100.00
23321;BME280;33376;51.306;4.752;2022-08-04T09:22:48;101800.91;;;24.04;100.00
23321;BME280;33376;51.306;4.752;2022-08-04T09:25:19;101824.19;;;24.33;100.00
23321;BME280;33376;51.306;4.752;2022-08-04T09:27:46;101837.94;;;24.22;100.00
23321;BME280;33376;51.306;4.752;2022-08-04T09:30:15;101839.84;;;24.03;100.00
23321;BME280;33376;51.306;4.752;2022-08-04T09:37:47;101840.97;;;24.10;100.00
23321;BME280;33376;51.306;4.752;2022-08-04T09:40:32;101846.22;;;24.11;100.00
23321;BME280;33376;51.306;4.752;2022-08-04T09:45:26;101855.56;;;23.71;100.00
23321;BME280;33376;51.306;4.752;2022-08-04T09:47:59;101867.91;;;23.92;100.00
23321;BME280;33376;51.306;4.752;2022-08-04T09:50:39;101869.78;;;23.73;100.00
23321;BME280;33376;51.306;4.752;2022-08-04T09:58:07;101832.16;;;23.32;100.00
23321;BME280;33376;51.306;4.752;2022-08-04T10:00:39;101778.44;;;23.17;100.00
23321;BME280;33376;51.306;4.752;2022-08-04T10:03:06;101723.84;;;22.74;100.00
23321;BME280;33376;51.306;4.752;2022-08-04T10:06:20;101658.66;;;22.77;100.00
23321;BME280;33376;51.306;4.752;2022-08-04T10:10:55;101630.34;;;23.00;100.00
23321;BME280;33376;51.306;4.752;2022-08-04T10:21:10;101549.19;;;23.00;100.00
23321;BME280;33376;51.306;4.752;2022-08-04T10:26:19;101567.38;;;23.54;100.00
23321;BME280;33376;51.306;4.752;2022-08-04T10:28:50;101549.56;;;23.61;100.00
23321;BME280;33376;51.306;4.752;2022-08-04T10:31:21;101545.31;;;23.76;100.00
23321;BME280;33376;51.306;4.752;2022-08-04T10:33:49;101550.78;;;23.67;100.00
23321;BME280;33376;51.306;4.752;2022-08-04T10:36:16;101546.78;;;23.71;100.00
23321;BME280;33376;51.306;4.752;2022-08-04T10:38:56;101547.09;;;23.68;100.00
23321;BME280;33376;51.306;4.752;2022-08-04T10:47:13;101565.16;;;24.21;100.00
23321;BME280;33376;51.306;4.752;2022-08-04T10:49:42;101569.09;;;24.27;100.00
23321;BME280;33376;51.306;4.752;2022-08-04T11:04:58;101655.84;;;25.83;100.00
23321;BME280;33376;51.306;4.752;2022-08-04T11:07:28;101660.44;;;26.66;100.00
23321;BME280;33376;51.306;4.752;2022-08-04T11:09:54;101677.66;;;26.83;100.00
23321;BME280;33376;51.306;4.752;2022-08-04T11:12:23;101686.28;;;26.13;100.00
23321;BME280;33376;51.306;4.752;2022-08-04T11:15:00;101689.63;;;26.48;100.00
23321;BME280;33376;51.306;4.752;2022-08-04T11:17:34;101705.47;;;26.11;100.00
23321;BME280;33376;51.306;4.752;2022-08-04T11:20:04;101716.16;;;26.13;100.00
23321;BME280;33376;51.306;4.752;2022-08-04T11:22:34;101731.75;;;26.03;100.00
23321;BME280;33376;51.306;4.752;2022-08-04T11:25:07;101742.28;;;26.31;100.00
23321;BME280;33376;51.306;4.752;2022-08-04T11:30:14;101751.19;;;27.23;100.00
23321;BME280;33376;51.306;4.752;2022-08-04T11:35:08;101768.97;;;26.36;100.00
23321;BME280;33376;51.306;4.752;2022-08-04T11:37:44;101776.53;;;26.16;100.00
23321;BME280;33376;51.306;4.752;2022-08-04T11:40:12;101782.28;;;26.13;100.00
23321;BME280;33376;51.306;4.752;2022-08-04T11:42:51;101785.81;;;26.39;100.00
23321;BME280;33376;51.306;4.752;2022-08-04T11:45:23;101785.53;;;26.17;100.00
23321;BME280;33376;51.306;4.752;2022-08-04T11:48:03;101796.63;;;26.23;100.00
23321;BME280;33376;51.306;4.752;2022-08-04T11:52:55;101809.03;;;27.01;100.00
23321;BME280;33376;51.306;4.752;2022-08-04T11:55:21;101812.34;;;26.37;100.00
23321;BME280;33376;51.306;4.752;2022-08-04T11:57:49;101819.53;;;26.21;100.00
23321;BME280;33376;51.306;4.752;2022-08-04T12:00:15;101821.53;;;26.78;100.00
23321;BME280;33376;51.306;4.752;2022-08-04T12:05:07;101810.16;;;27.56;100.00
23321;BME280;33376;51.306;4.752;2022-08-04T12:10:14;101806.06;;;27.76;100.00
23321;BME280;33376;51.306;4.752;2022-08-04T12:12:44;101816.28;;;28.14;100.00
23321;BME280;33376;51.306;4.752;2022-08-04T12:15:15;101784.16;;;28.32;100.00
23321;BME280;33376;51.306;4.752;2022-08-04T12:20:18;101791.09;;;28.90;100.00
23321;BME280;33376;51.306;4.752;2022-08-04T12:22:47;101783.75;;;28.90;100.00
23321;BME280;33376;51.306;4.752;2022-08-04T12:25:35;101783.28;;;28.79;100.00
23321;BME280;33376;51.306;4.752;2022-08-04T12:28:15;101781.34;;;28.10;100.00
23321;BME280;33376;51.306;4.752;2022-08-04T12:30:44;101773.53;;;28.53;100.00
23321;BME280;33376;51.306;4.752;2022-08-04T12:33:11;101786.34;;;28.53;100.00
23321;BME280;33376;51.306;4.752;2022-08-04T12:38:06;101793.09;;;28.65;100.00
23321;BME280;33376;51.306;4.752;2022-08-04T12:40:49;101778.38;;;28.74;100.00
23321;BME280;33376;51.306;4.752;2022-08-04T12:45:49;101774.53;;;28.91;100.00
23321;BME280;33376;51.306;4.752;2022-08-04T12:48:16;101758.38;;;28.82;100.00
23321;BME280;33376;51.306;4.752;2022-08-04T12:50:45;101771.53;;;29.91;100.00
23321;BME280;33376;51.306;4.752;2022-08-04T12:53:12;101769.31;;;30.38;100.00
23321;BME280;33376;51.306;4.752;2022-08-04T12:55:43;101736.47;;;31.45;100.00
23321;BME280;33376;51.306;4.752;2022-08-04T12:58:14;101733.03;;;30.65;100.00
23321;BME280;33376;51.306;4.752;2022-08-04T13:00:40;101750.84;;;29.14;100.00
23321;BME280;33376;51.306;4.752;2022-08-04T13:03:07;101777.00;;;28.78;100.00
23321;BME280;33376;51.306;4.752;2022-08-04T13:05:34;101766.31;;;29.22;100.00
23321;BME280;33376;51.306;4.752;2022-08-04T13:08:00;101759.66;;;30.13;100.00
23321;BME280;33376;51.306;4.752;2022-08-04T13:10:26;101729.19;;;29.87;100.00
23321;BME280;33376;51.306;4.752;2022-08-04T13:12:57;101731.72;;;30.47;100.00
23321;BME280;33376;51.306;4.752;2022-08-04T13:15:23;101724.72;;;29.71;100.00
23321;BME280;33376;51.306;4.752;2022-08-04T13:17:54;101718.78;;;29.82;100.00
23321;BME280;33376;51.306;4.752;2022-08-04T13:20:38;101738.41;;;29.12;100.00
23321;BME280;33376;51.306;4.752;2022-08-04T13:23:08;101758.28;;;28.20;100.00
23321;BME280;33376;51.306;4.752;2022-08-04T13:25:35;101769.03;;;28.22;100.00
23321;BME280;33376;51.306;4.752;2022-08-04T13:28:04;101770.91;;;28.13;100.00
23321;BME280;33376;51.306;4.752;2022-08-04T13:30:31;101770.50;;;29.10;100.00
23321;BME280;33376;51.306;4.752;2022-08-04T13:33:01;101754.78;;;28.81;100.00
23321;BME280;33376;51.306;4.752;2022-08-04T13:35:26;101754.09;;;29.55;100.00
23321;BME280;33376;51.306;4.752;2022-08-04T13:37:53;101755.09;;;29.17;100.00
23321;BME280;33376;51.306;4.752;2022-08-04T13:40:20;101752.25;;;29.33;100.00
23321;BME280;33376;51.306;4.752;2022-08-04T13:42:46;101739.31;;;28.74;100.00
23321;BME280;33376;51.306;4.752;2022-08-04T13:45:12;101755.97;;;28.56;100.00
23321;BME280;33376;51.306;4.752;2022-08-04T13:47:38;101741.13;;;29.12;100.00
23321;BME280;33376;51.306;4.752;2022-08-04T13:50:04;101760.84;;;28.69;100.00
23321;BME280;33376;51.306;4.752;2022-08-04T13:52:30;101729.31;;;28.89;100.00
23321;BME280;33376;51.306;4.752;2022-08-04T13:54:55;101728.50;;;29.70;100.00
23321;BME280;33376;51.306;4.752;2022-08-04T13:57:22;101743.44;;;30.41;100.00
23321;BME280;33376;51.306;4.752;2022-08-04T13:59:52;101687.72;;;30.48;100.00
23321;BME280;33376;51.306;4.752;2022-08-04T14:02:29;101676.59;;;30.21;100.00
23321;BME280;33376;51.306;4.752;2022-08-04T14:04:56;101668.69;;;31.18;100.00
23321;BME280;33376;51.306;4.752;2022-08-04T14:07:25;101662.03;;;31.27;100.00
23321;BME280;33376;51.306;4.752;2022-08-04T14:09:51;101659.56;;;31.32;100.00
23321;BME280;33376;51.306;4.752;2022-08-04T14:12:17;101636.88;;;31.45;100.00
23321;BME280;33376;51.306;4.752;2022-08-04T14:14:44;101624.09;;;31.03;100.00
23321;BME280;33376;51.306;4.752;2022-08-04T14:17:11;101631.13;;;30.70;100.00
23321;BME280;33376;51.306;4.752;2022-08-04T14:20:10;101635.97;;;30.89;100.00
23321;BME280;33376;51.306;4.752;2022-08-04T14:22:30;101663.59;;;30.37;100.00
23321;BME280;33376;51.306;4.752;2022-08-04T14:27:21;101687.81;;;29.53;100.00
23321;BME280;33376;51.306;4.752;2022-08-04T14:29:46;101711.56;;;29.15;100.00
23321;BME280;33376;51.306;4.752;2022-08-04T14:32:11;101693.25;;;29.38;100.00
23321;BME280;33376;51.306;4.752;2022-08-04T14:34:37;101691.63;;;30.10;100.00
23321;BME280;33376;51.306;4.752;2022-08-04T14:37:06;101697.88;;;30.33;100.00
23321;BME280;33376;51.306;4.752;2022-08-04T14:39:38;101687.97;;;30.32;100.00
23321;BME280;33376;51.306;4.752;2022-08-04T14:42:04;101683.34;;;30.03;100.00
23321;BME280;33376;51.306;4.752;2022-08-04T14:44:30;101643.44;;;30.24;100.00
23321;BME280;33376;51.306;4.752;2022-08-04T14:46:55;101674.09;;;30.69;100.00
23321;BME280;33376;51.306;4.752;2022-08-04T14:49:22;101656.13;;;30.46;100.00
23321;BME280;33376;51.306;4.752;2022-08-04T14:51:56;101678.91;;;30.17;100.00
23321;BME280;33376;51.306;4.752;2022-08-04T14:56:52;101690.91;;;29.72;100.00
23321;BME280;33376;51.306;4.752;2022-08-04T14:59:18;101686.13;;;29.15;100.00
23321;BME280;33376;51.306;4.752;2022-08-04T15:01:44;101701.94;;;29.42;100.00
23321;BME280;33376;51.306;4.752;2022-08-04T15:04:10;101702.88;;;30.00;100.00
23321;BME280;33376;51.306;4.752;2022-08-04T15:06:35;101699.63;;;29.53;100.00
23321;BME280;33376;51.306;4.752;2022-08-04T15:09:02;101687.53;;;29.48;100.00
23321;BME280;33376;51.306;4.752;2022-08-04T15:11:28;101701.03;;;29.27;100.00
23321;BME280;33376;51.306;4.752;2022-08-04T15:13:54;101696.94;;;29.68;100.00
23321;BME280;33376;51.306;4.752;2022-08-04T15:16:23;101689.19;;;29.71;100.00
23321;BME280;33376;51.306;4.752;2022-08-04T15:18:50;101704.13;;;29.24;100.00
23321;BME280;33376;51.306;4.752;2022-08-04T15:21:15;101709.41;;;28.80;100.00
23321;BME280;33376;51.306;4.752;2022-08-04T15:23:40;101701.75;;;28.76;100.00
23321;BME280;33376;51.306;4.752;2022-08-04T15:26:12;101709.94;;;28.45;100.00
23321;BME280;33376;51.306;4.752;2022-08-04T15:28:40;101707.34;;;29.05;100.00
23321;BME280;33376;51.306;4.752;2022-08-04T15:31:07;101696.50;;;29.56;100.00
23321;BME280;33376;51.306;4.752;2022-08-04T15:33:33;101688.56;;;29.47;100.00
23321;BME280;33376;51.306;4.752;2022-08-04T15:36:15;101696.25;;;29.29;100.00
23321;BME280;33376;51.306;4.752;2022-08-04T15:39:30;101685.38;;;28.98;100.00
23321;BME280;33376;51.306;4.752;2022-08-04T15:41:45;101690.69;;;28.69;100.00
23321;BME280;33376;51.306;4.752;2022-08-04T15:49:19;101732.66;;;27.91;100.00
23321;BME280;33376;51.306;4.752;2022-08-04T15:51:45;101725.69;;;27.56;100.00
23321;BME280;33376;51.306;4.752;2022-08-04T15:56:42;101730.44;;;27.62;100.00
23321;BME280;33376;51.306;4.752;2022-08-04T15:59:08;101724.66;;;27.65;100.00
23321;BME280;33376;51.306;4.752;2022-08-04T16:01:33;101718.38;;;27.57;100.00
23321;BME280;33376;51.306;4.752;2022-08-04T16:03:58;101709.94;;;27.98;100.00
23321;BME280;33376;51.306;4.752;2022-08-04T16:14:06;101734.88;;;27.55;100.00
23321;BME280;33376;51.306;4.752;2022-08-04T16:19:09;101733.66;;;27.17;100.00
23321;BME280;33376;51.306;4.752;2022-08-04T16:21:50;101740.00;;;27.34;100.00
23321;BME280;33376;51.306;4.752;2022-08-04T16:26:51;101743.72;;;27.25;100.00
23321;BME280;33376;51.306;4.752;2022-08-04T16:32:32;101765.47;;;27.01;100.00
23321;BME280;33376;51.306;4.752;2022-08-04T16:34:37;101758.13;;;26.85;100.00
23321;BME280;33376;51.306;4.752;2022-08-04T16:37:04;101758.59;;;26.73;100.00
23321;BME280;33376;51.306;4.752;2022-08-04T16:39:30;101769.91;;;26.60;100.00
23321;BME280;33376;51.306;4.752;2022-08-04T16:41:55;101767.69;;;26.56;100.00
23321;BME280;33376;51.306;4.752;2022-08-04T16:44:31;101784.19;;;26.54;100.00
23321;BME280;33376;51.306;4.752;2022-08-04T16:46:57;101773.28;;;26.46;100.00
23321;BME280;33376;51.306;4.752;2022-08-04T16:49:24;101782.53;;;26.28;100.00
23321;BME280;33376;51.306;4.752;2022-08-04T16:51:49;101790.09;;;26.42;100.00
23321;BME280;33376;51.306;4.752;2022-08-04T16:54:15;101786.97;;;26.29;100.00
23321;BME280;33376;51.306;4.752;2022-08-04T16:56:40;101788.31;;;26.25;100.00
23321;BME280;33376;51.306;4.752;2022-08-04T16:59:07;101790.38;;;26.31;100.00
23321;BME280;33376;51.306;4.752;2022-08-04T17:01:33;101801.19;;;25.97;100.00
23321;BME280;33376;51.306;4.752;2022-08-04T17:03:58;101801.84;;;25.91;100.00